Time;durP1;ratioP1;P1;durP2;ratioP2;P2;SDS_P1;SDS_P2;PMS_P1;PMS_P2;Temp;Humidity;BMP_temperature;BMP_pressure;BME280_temperature;BME280_humidity;BME280_pressure;Samples;Min_cycle;Max_cycle;Signal;HPM_P1;HPM_P2
2023/04/18 00:00:19;;;;;;;3.88;2.17;;;11.60;61.60;;;;;;4968551;28;20081;-69
2023/04/18 00:02:45;;;;;;;3.35;2.05;;;11.60;61.30;;;;;;4968130;28;20031;-69
2023/04/18 00:05:11;;;;;;;2.05;1.70;;;11.60;61.10;;;;;;4969995;28;20061;-69
2023/04/18 00:07:37;;;;;;;2.38;1.77;;;11.60;60.70;;;;;;4968707;28;20034;-69
2023/04/18 00:10:04;;;;;;;3.65;2.20;;;11.60;60.50;;;;;;4967353;28;20114;-68
2023/04/18 00:12:33;;;;;;;3.38;1.75;;;11.60;60.40;;;;;;4969920;28;20077;-67
2023/04/18 00:14:59;;;;;;;2.55;1.90;;;11.50;60.20;;;;;;4971805;28;20031;-68
2023/04/18 00:17:29;;;;;;;4.07;1.98;;;11.50;60.10;;;;;;4969463;28;20836;-69
2023/04/18 00:19:57;;;;;;;4.13;2.70;;;11.50;60.00;;;;;;4972847;28;20141;-69
2023/04/18 00:22:23;;;;;;;3.58;2.10;;;11.50;59.70;;;;;;4970589;28;20038;-69
2023/04/18 00:24:49;;;;;;;4.50;2.08;;;11.50;59.60;;;;;;4969720;28;20852;-70
2023/04/18 00:27:17;;;;;;;3.78;2.20;;;11.50;59.60;;;;;;4958162;28;20382;-69
2023/04/18 00:29:43;;;;;;;3.20;1.90;;;11.40;59.60;;;;;;4967463;28;20037;-69
2023/04/18 00:32:08;;;;;;;4.15;2.10;;;11.40;59.60;;;;;;4969058;28;20368;-69
2023/04/18 00:34:34;;;;;;;2.10;1.85;;;11.40;59.50;;;;;;4961217;28;20042;-69
2023/04/18 00:37:00;;;;;;;7.50;2.78;;;11.30;59.40;;;;;;4971069;28;20035;-69
2023/04/18 00:39:25;;;;;;;2.25;1.92;;;11.30;59.30;;;;;;4971157;28;20035;-69
2023/04/18 00:41:51;;;;;;;2.75;1.90;;;11.20;59.20;;;;;;4961539;28;20031;-69
2023/04/18 00:44:17;;;;;;;7.32;2.25;;;11.20;59.20;;;;;;4968354;28;20110;-69
2023/04/18 00:46:43;;;;;;;4.18;2.13;;;11.10;59.20;;;;;;4964767;28;20050;-69
2023/04/18 00:49:09;;;;;;;3.40;2.38;;;11.10;59.20;;;;;;4968467;28;20109;-68
2023/04/18 00:51:35;;;;;;;3.50;2.53;;;11.10;59.20;;;;;;4962072;28;20035;-69
2023/04/18 00:54:02;;;;;;;4.13;2.35;;;11.00;59.20;;;;;;4969934;28;20041;-69
2023/04/18 00:56:28;;;;;;;4.03;2.40;;;10.90;59.10;;;;;;4960265;28;20047;-68
2023/04/18 00:58:55;;;;;;;3.17;2.13;;;10.90;59.10;;;;;;4964281;28;20421;-68
2023/04/18 01:01:21;;;;;;;13.85;2.13;;;10.80;59.10;;;;;;4970601;28;20397;-68
2023/04/18 01:03:46;;;;;;;3.80;2.17;;;10.80;59.00;;;;;;4966485;28;20093;-68
2023/04/18 01:06:12;;;;;;;6.50;2.78;;;10.70;59.10;;;;;;4970720;28;20097;-69
2023/04/18 01:08:38;;;;;;;14.52;2.58;;;10.70;58.90;;;;;;4970941;28;20031;-68
2023/04/18 01:11:04;;;;;;;3.08;2.28;;;10.60;59.00;;;;;;4971969;28;20478;-67
2023/04/18 01:13:30;;;;;;;4.38;2.22;;;10.60;59.00;;;;;;4970976;28;20050;-68
2023/04/18 01:15:55;;;;;;;2.88;2.10;;;10.60;59.10;;;;;;4972333;28;20038;-69
2023/04/18 01:18:21;;;;;;;2.40;1.90;;;10.50;59.00;;;;;;4970450;28;20045;-69
2023/04/18 01:20:49;;;;;;;4.63;2.38;;;10.50;59.30;;;;;;4970973;28;20035;-68
2023/04/18 01:23:16;;;;;;;6.00;1.92;;;10.40;58.90;;;;;;4971884;28;20050;-68
2023/04/18 01:25:43;;;;;;;2.22;1.63;;;10.40;59.00;;;;;;4970677;28;20034;-68
2023/04/18 01:28:09;;;;;;;3.40;1.83;;;10.40;59.00;;;;;;4968343;28;20027;-69
2023/04/18 01:30:35;;;;;;;3.53;2.03;;;10.40;58.90;;;;;;4968675;28;20576;-68
2023/04/18 01:33:02;;;;;;;2.83;2.05;;;10.40;58.90;;;;;;4969680;28;20058;-68
2023/04/18 01:35:28;;;;;;;5.95;1.85;;;10.40;58.90;;;;;;4971643;28;20038;-68
2023/04/18 01:37:54;;;;;;;8.18;2.25;;;10.30;58.90;;;;;;4969679;28;20039;-69
2023/04/18 01:40:20;;;;;;;4.10;1.80;;;10.30;58.90;;;;;;4971687;28;20039;-69
2023/04/18 01:42:46;;;;;;;5.25;2.75;;;10.30;58.90;;;;;;4970002;28;20039;-69
2023/04/18 01:45:12;;;;;;;3.90;2.53;;;10.30;58.90;;;;;;4969733;28;20034;-69
2023/04/18 01:47:38;;;;;;;5.63;2.65;;;10.20;58.80;;;;;;4968035;28;20027;-68
2023/04/18 01:50:04;;;;;;;4.80;2.10;;;10.20;58.90;;;;;;4970090;28;20035;-68
2023/04/18 01:52:30;;;;;;;2.97;1.73;;;10.20;58.90;;;;;;4962478;28;20046;-68
2023/04/18 01:54:55;;;;;;;4.30;2.55;;;10.10;58.90;;;;;;4967032;28;20069;-68
2023/04/18 01:57:21;;;;;;;3.15;2.33;;;10.10;58.90;;;;;;4971983;28;20486;-69
2023/04/18 01:59:47;;;;;;;3.58;1.75;;;10.10;59.00;;;;;;5009847;28;20037;-69
2023/04/18 02:02:12;;;;;;;3.70;2.15;;;10.10;59.00;;;;;;5006863;28;20022;-69
2023/04/18 02:04:38;;;;;;;5.30;2.65;;;10.10;59.10;;;;;;5008009;28;20468;-69
2023/04/18 02:07:04;;;;;;;3.35;2.25;;;10.00;59.10;;;;;;4992647;28;20034;-69
2023/04/18 02:09:30;;;;;;;6.70;2.55;;;10.00;59.10;;;;;;5006916;28;20096;-69
2023/04/18 02:11:58;;;;;;;4.18;2.35;;;10.00;59.10;;;;;;5002914;28;20096;-68
2023/04/18 02:14:25;;;;;;;6.05;2.40;;;9.90;59.00;;;;;;5009548;28;20096;-66
2023/04/18 02:16:51;;;;;;;4.68;2.33;;;9.90;59.10;;;;;;5008862;28;20026;-67
2023/04/18 02:19:17;;;;;;;6.30;2.83;;;9.90;59.10;;;;;;5008709;28;20037;-67
2023/04/18 02:21:43;;;;;;;4.25;2.63;;;9.80;59.20;;;;;;5010733;28;20100;-67
2023/04/18 02:24:09;;;;;;;5.70;2.60;;;9.80;59.20;;;;;;5009703;28;20061;-67
2023/04/18 02:26:35;;;;;;;2.38;1.80;;;9.80;59.30;;;;;;5002989;28;20377;-67
2023/04/18 02:29:00;;;;;;;3.65;1.77;;;9.70;59.20;;;;;;5007863;28;20144;-67
2023/04/18 02:31:27;;;;;;;4.05;2.25;;;9.70;59.30;;;;;;5008225;28;20153;-67
2023/04/18 02:33:52;;;;;;;4.45;2.22;;;9.70;59.30;;;;;;4978381;28;20494;-67
2023/04/18 02:36:18;;;;;;;3.80;2.42;;;9.70;59.40;;;;;;4998706;28;20092;-67
2023/04/18 02:38:44;;;;;;;3.72;1.92;;;9.60;59.40;;;;;;5004109;28;20117;-67
2023/04/18 02:41:16;;;;;;;7.40;3.22;;;9.60;59.50;;;;;;5000854;28;20424;-67
2023/04/18 02:43:41;;;;;;;3.88;2.35;;;9.60;59.60;;;;;;5008046;28;20117;-68
2023/04/18 02:46:07;;;;;;;2.20;1.77;;;9.60;59.70;;;;;;4994314;28;20129;-68
2023/04/18 02:48:33;;;;;;;5.38;1.90;;;9.50;59.70;;;;;;4983879;28;20550;-68
2023/04/18 02:51:06;;;;;;;3.90;1.90;;;9.50;59.80;;;;;;4993502;28;20080;-68
2023/04/18 02:53:32;;;;;;;3.88;2.28;;;9.50;59.90;;;;;;5001119;28;20137;-68
2023/04/18 02:55:58;;;;;;;3.72;2.42;;;9.40;59.90;;;;;;5004982;28;20381;-68
2023/04/18 02:58:24;;;;;;;3.95;2.08;;;9.40;60.00;;;;;;5006289;28;20048;-68
2023/04/18 03:00:53;;;;;;;3.67;2.63;;;9.40;60.00;;;;;;4977923;28;20409;-67
2023/04/18 03:03:19;;;;;;;5.07;2.50;;;9.40;60.00;;;;;;5008795;28;20049;-67
2023/04/18 03:05:45;;;;;;;4.10;2.70;;;9.40;60.30;;;;;;5006605;28;20500;-67
2023/04/18 03:08:11;;;;;;;4.07;2.42;;;9.30;60.20;;;;;;5007103;28;20113;-68
2023/04/18 03:10:37;;;;;;;4.75;3.10;;;9.30;60.20;;;;;;5005549;28;20073;-67
2023/04/18 03:13:03;;;;;;;2.83;2.28;;;9.30;60.20;;;;;;5004377;28;20076;-67
2023/04/18 03:15:31;;;;;;;4.25;3.00;;;9.20;60.30;;;;;;4988230;28;20030;-67
2023/04/18 03:17:57;;;;;;;3.85;2.10;;;9.20;60.40;;;;;;5008857;28;20026;-67
2023/04/18 03:20:23;;;;;;;3.63;2.28;;;9.20;60.60;;;;;;5009638;28;20405;-68
2023/04/18 03:22:49;;;;;;;3.17;2.30;;;9.20;60.70;;;;;;5009322;28;20037;-68
2023/04/18 03:25:15;;;;;;;3.10;2.10;;;9.20;60.70;;;;;;5007156;28;20041;-68
2023/04/18 03:27:42;;;;;;;3.80;2.20;;;9.20;60.80;;;;;;4997540;28;20508;-66
2023/04/18 03:30:10;;;;;;;3.35;2.25;;;9.20;60.80;;;;;;5007651;28;20130;-68
2023/04/18 03:32:35;;;;;;;2.75;2.00;;;9.10;60.90;;;;;;5009570;28;20029;-68
2023/04/18 03:35:02;;;;;;;3.05;2.05;;;9.10;61.00;;;;;;5008674;28;20034;-69
2023/04/18 03:37:27;;;;;;;4.70;2.65;;;9.20;61.10;;;;;;5009029;28;20413;-68
2023/04/18 03:39:53;;;;;;;4.35;2.50;;;9.20;61.10;;;;;;5007219;28;20026;-68
2023/04/18 03:42:19;;;;;;;5.93;2.33;;;9.20;61.10;;;;;;5007267;28;20120;-67
2023/04/18 03:44:45;;;;;;;2.33;1.83;;;9.30;61.00;;;;;;4983737;28;20030;-68
2023/04/18 03:47:10;;;;;;;4.03;2.28;;;9.30;60.90;;;;;;4988745;28;20026;-68
2023/04/18 03:49:37;;;;;;;4.25;1.92;;;9.40;61.00;;;;;;5005487;28;20037;-68
2023/04/18 03:52:03;;;;;;;3.97;2.38;;;9.40;60.90;;;;;;4982066;28;20061;-67
2023/04/18 03:54:29;;;;;;;4.75;2.83;;;9.40;61.00;;;;;;5005870;28;20042;-67
2023/04/18 03:56:55;;;;;;;3.70;2.45;;;9.40;61.00;;;;;;5001962;28;20160;-68
2023/04/18 03:59:20;;;;;;;2.35;1.85;;;9.40;61.10;;;;;;5004427;28;20046;-67
2023/04/18 04:01:46;;;;;;;2.58;1.77;;;9.40;61.10;;;;;;5003595;28;20034;-68
2023/04/18 04:04:13;;;;;;;3.85;2.60;;;9.40;61.20;;;;;;5003393;28;20046;-68
2023/04/18 04:06:40;;;;;;;3.70;2.53;;;9.50;61.30;;;;;;5002843;28;20022;-68
2023/04/18 04:09:06;;;;;;;4.82;2.45;;;9.50;61.30;;;;;;4996496;28;20386;-68
2023/04/18 04:11:31;;;;;;;2.50;1.90;;;9.50;61.30;;;;;;5006132;28;20033;-68
2023/04/18 04:13:57;;;;;;;3.05;2.35;;;9.50;61.40;;;;;;4981573;28;20172;-68
2023/04/18 04:16:24;;;;;;;3.85;2.55;;;9.50;61.50;;;;;;5005794;28;20507;-68
2023/04/18 04:18:54;;;;;;;3.42;2.53;;;9.50;61.60;;;;;;4968688;28;20485;-68
2023/04/18 04:21:20;;;;;;;3.28;2.33;;;9.50;62.40;;;;;;4999707;28;20049;-68
2023/04/18 04:23:46;;;;;;;2.22;2.03;;;9.50;61.80;;;;;;4980923;28;20034;-68
2023/04/18 04:26:13;;;;;;;5.60;2.67;;;9.50;61.90;;;;;;4996537;28;20504;-68
2023/04/18 04:28:41;;;;;;;4.88;2.17;;;9.50;61.80;;;;;;5000083;28;20025;-68
2023/04/18 04:31:09;;;;;;;4.13;2.67;;;9.60;61.90;;;;;;4997553;28;20442;-68
2023/04/18 04:33:37;;;;;;;8.13;3.05;;;9.60;62.10;;;;;;4997249;28;20433;-68
2023/04/18 04:36:05;;;;;;;11.18;2.70;;;9.60;62.00;;;;;;5002413;28;20060;-68
2023/04/18 04:38:31;;;;;;;4.47;2.15;;;9.60;62.30;;;;;;5001969;28;20037;-69
2023/04/18 04:40:57;;;;;;;3.95;2.28;;;9.60;62.30;;;;;;5002136;28;20022;-69
2023/04/18 04:43:23;;;;;;;4.93;2.58;;;9.60;62.20;;;;;;4989042;28;20131;-69
2023/04/18 04:45:51;;;;;;;3.75;2.30;;;9.60;62.90;;;;;;5001862;28;20185;-70
2023/04/18 04:48:18;;;;;;;4.22;2.60;;;9.60;62.40;;;;;;5003708;28;20427;-69
2023/04/18 04:50:51;;;;;;;9.68;2.75;;;9.60;62.60;;;;;;5004905;28;20106;-68
2023/04/18 04:53:17;;;;;;;2.53;2.00;;;9.60;62.60;;;;;;5000220;28;20022;-68
2023/04/18 04:55:45;;;;;;;3.30;1.90;;;9.60;62.70;;;;;;4987443;28;20054;-68
2023/04/18 04:58:10;;;;;;;6.53;3.20;;;9.60;62.80;;;;;;4998323;28;20048;-67
2023/04/18 05:00:36;;;;;;;3.67;2.30;;;9.60;62.80;;;;;;5009960;28;20034;-68
2023/04/18 05:03:02;;;;;;;2.70;1.92;;;9.60;62.90;;;;;;4989934;28;20034;-68
2023/04/18 05:05:28;;;;;;;3.45;1.75;;;9.60;62.90;;;;;;4993758;28;20057;-67
2023/04/18 05:07:54;;;;;;;2.72;2.20;;;9.60;62.90;;;;;;5000687;28;20061;-68
2023/04/18 05:10:20;;;;;;;5.57;2.92;;;9.70;63.00;;;;;;5005566;28;20066;-68
2023/04/18 05:12:46;;;;;;;3.00;2.15;;;9.70;62.90;;;;;;5006321;28;20018;-68
2023/04/18 05:15:14;;;;;;;4.82;2.50;;;9.70;63.10;;;;;;5009773;28;20326;-68
2023/04/18 05:17:40;;;;;;;3.85;2.78;;;9.60;63.20;;;;;;5009580;28;20492;-70
2023/04/18 05:20:06;;;;;;;3.88;2.08;;;9.60;63.40;;;;;;5010165;28;20022;-68
2023/04/18 05:22:32;;;;;;;5.15;2.70;;;9.60;63.40;;;;;;4988617;28;20045;-68
2023/04/18 05:24:58;;;;;;;3.90;2.63;;;9.60;63.50;;;;;;5011129;28;20397;-68
2023/04/18 05:27:24;;;;;;;2.58;1.83;;;9.60;63.70;;;;;;5006744;28;20030;-68
2023/04/18 05:29:49;;;;;;;4.20;2.50;;;9.60;63.90;;;;;;5002154;28;20026;-71
2023/04/18 05:32:15;;;;;;;3.28;2.28;;;9.60;63.90;;;;;;5006189;28;20194;-69
2023/04/18 05:34:41;;;;;;;4.10;2.10;;;9.70;64.40;;;;;;5008440;28;20481;-69
2023/04/18 05:37:07;;;;;;;3.60;2.33;;;9.80;63.80;;;;;;5006456;28;20033;-68
2023/04/18 05:39:33;;;;;;;4.57;2.00;;;9.80;63.70;;;;;;5004527;28;20037;-69
2023/04/18 05:41:58;;;;;;;5.07;2.00;;;9.90;63.80;;;;;;5010181;28;20061;-69
2023/04/18 05:44:24;;;;;;;4.65;2.42;;;9.90;63.80;;;;;;5010822;28;20068;-69
2023/04/18 05:46:50;;;;;;;5.68;2.33;;;9.90;64.00;;;;;;4993429;28;20433;-69
2023/04/18 05:49:17;;;;;;;3.40;2.65;;;9.90;64.00;;;;;;5009163;28;20076;-68
2023/04/18 05:51:43;;;;;;;3.70;1.98;;;10.00;64.20;;;;;;5005467;28;20501;-68
2023/04/18 05:54:09;;;;;;;5.40;3.05;;;10.00;64.20;;;;;;4989549;28;20033;-68
2023/04/18 05:56:34;;;;;;;8.32;2.45;;;10.00;64.20;;;;;;5010320;28;20029;-68
2023/04/18 05:59:00;;;;;;;3.78;2.20;;;10.00;64.20;;;;;;5009121;28;20049;-68
2023/04/18 06:01:26;;;;;;;3.53;1.80;;;10.00;64.50;;;;;;5011064;28;20038;-68
2023/04/18 06:03:53;;;;;;;3.80;2.65;;;10.10;64.40;;;;;;5008293;28;20137;-68
2023/04/18 06:06:19;;;;;;;3.30;2.30;;;10.10;64.40;;;;;;4994421;28;20113;-68
2023/04/18 06:08:44;;;;;;;6.35;2.35;;;10.10;64.60;;;;;;5009772;28;20109;-69
2023/04/18 06:11:10;;;;;;;3.20;2.00;;;10.20;64.60;;;;;;5010478;28;20025;-69
2023/04/18 06:13:36;;;;;;;3.45;2.25;;;10.20;64.60;;;;;;5008404;28;20382;-69
2023/04/18 06:16:02;;;;;;;3.25;2.13;;;10.20;64.70;;;;;;5006927;28;20049;-69
2023/04/18 06:18:28;;;;;;;4.05;2.60;;;10.20;64.60;;;;;;5004020;28;20346;-69
2023/04/18 06:20:54;;;;;;;2.13;1.80;;;10.30;64.50;;;;;;5009111;28;20083;-68
2023/04/18 06:23:19;;;;;;;4.53;2.25;;;10.30;64.50;;;;;;5009163;28;20493;-68
2023/04/18 06:25:45;;;;;;;3.28;1.95;;;10.40;64.60;;;;;;5004588;28;20026;-68
2023/04/18 06:28:11;;;;;;;2.92;1.77;;;10.50;64.50;;;;;;5003799;28;20030;-68
2023/04/18 06:30:36;;;;;;;4.63;2.92;;;10.60;64.40;;;;;;4987511;28;20030;-68
2023/04/18 06:33:02;;;;;;;6.55;2.55;;;10.60;64.40;;;;;;4992249;28;20042;-69
2023/04/18 06:35:30;;;;;;;2.58;1.55;;;10.60;64.40;;;;;;5007059;28;20034;-68
2023/04/18 06:37:56;;;;;;;3.28;1.95;;;10.60;64.20;;;;;;4990315;28;20026;-68
2023/04/18 06:40:22;;;;;;;2.95;1.90;;;10.70;64.10;;;;;;5004853;28;20033;-68
2023/04/18 06:42:47;;;;;;;2.45;1.40;;;10.70;64.10;;;;;;5007344;28;20025;-68
2023/04/18 06:45:13;;;;;;;3.47;1.38;;;10.80;64.10;;;;;;5007928;28;20091;-69
2023/04/18 06:47:39;;;;;;;3.38;2.15;;;10.90;64.00;;;;;;4992167;28;20030;-67
2023/04/18 06:50:06;;;;;;;3.50;1.95;;;10.90;64.30;;;;;;5005977;28;20015;-67
2023/04/18 06:52:32;;;;;;;3.33;2.00;;;10.90;64.30;;;;;;5004756;28;20026;-67
2023/04/18 06:54:58;;;;;;;3.60;2.28;;;10.90;64.20;;;;;;4981704;28;20485;-66
2023/04/18 06:57:24;;;;;;;3.10;1.90;;;11.00;64.20;;;;;;5007846;28;20096;-67
2023/04/18 06:59:50;;;;;;;2.13;1.60;;;11.10;64.10;;;;;;5007818;28;20036;-67
2023/04/18 07:02:16;;;;;;;3.00;1.65;;;11.10;64.00;;;;;;5006159;28;20030;-67
2023/04/18 07:04:41;;;;;;;3.92;1.95;;;11.20;64.00;;;;;;5002697;28;20081;-68
2023/04/18 07:07:07;;;;;;;2.88;1.83;;;11.30;64.00;;;;;;5007263;28;20041;-68
2023/04/18 07:09:33;;;;;;;2.47;1.33;;;11.40;64.00;;;;;;5002943;28;20022;-68
2023/04/18 07:11:59;;;;;;;4.70;1.92;;;11.50;63.80;;;;;;4998286;28;20393;-69
2023/04/18 07:14:24;;;;;;;2.53;1.60;;;11.60;63.60;;;;;;5009895;28;20073;-69
2023/04/18 07:16:50;;;;;;;2.75;1.52;;;11.60;63.50;;;;;;5005761;28;20481;-69
2023/04/18 07:19:16;;;;;;;2.60;1.95;;;11.70;63.50;;;;;;5004020;28;20037;-67
2023/04/18 07:21:42;;;;;;;2.97;1.80;;;11.70;63.40;;;;;;4972548;28;20083;-69
2023/04/18 07:24:08;;;;;;;2.30;1.50;;;11.70;63.30;;;;;;5009499;28;20396;-69
2023/04/18 07:26:34;;;;;;;4.55;2.28;;;11.80;63.30;;;;;;5005155;28;20034;-68
2023/04/18 07:29:00;;;;;;;3.17;2.03;;;11.90;63.30;;;;;;5002119;28;20033;-68
2023/04/18 07:31:27;;;;;;;3.15;1.80;;;11.90;63.10;;;;;;5004717;28;20459;-67
2023/04/18 07:33:54;;;;;;;2.83;1.55;;;11.90;63.00;;;;;;5000884;28;20026;-69
2023/04/18 07:36:20;;;;;;;3.75;1.60;;;12.00;63.00;;;;;;5001675;28;20040;-71
2023/04/18 07:38:46;;;;;;;1.40;1.30;;;12.00;63.00;;;;;;5003633;28;20076;-69
2023/04/18 07:41:12;;;;;;;2.17;1.30;;;12.00;63.00;;;;;;5003622;28;20022;-68
2023/04/18 07:43:38;;;;;;;2.53;1.42;;;12.10;63.00;;;;;;5003840;28;20029;-68
2023/04/18 07:46:07;;;;;;;2.00;1.60;;;12.20;62.80;;;;;;5002661;28;20482;-69
2023/04/18 07:48:32;;;;;;;1.30;1.00;;;12.40;62.50;;;;;;5001604;28;20469;-69
2023/04/18 07:50:58;;;;;;;2.25;1.40;;;12.50;62.30;;;;;;4991818;28;20048;-69
2023/04/18 07:53:24;;;;;;;1.55;1.08;;;12.60;62.10;;;;;;4991857;28;20036;-68
2023/04/18 07:55:50;;;;;;;2.83;2.03;;;12.70;62.00;;;;;;4989309;28;20388;-69
2023/04/18 07:58:16;;;;;;;2.17;1.48;;;12.70;61.90;;;;;;5003750;28;20096;-68
2023/04/18 08:00:43;;;;;;;5.90;1.75;;;12.80;61.80;;;;;;5006298;28;20053;-68
2023/04/18 08:03:10;;;;;;;2.63;1.85;;;12.80;61.60;;;;;;4994191;28;20477;-69
2023/04/18 08:05:40;;;;;;;2.08;1.80;;;12.90;61.70;;;;;;4984736;28;20088;-69
2023/04/18 08:08:07;;;;;;;4.15;1.60;;;13.00;61.50;;;;;;4982370;28;20053;-71
2023/04/18 08:10:33;;;;;;;2.03;1.35;;;13.10;61.40;;;;;;5001655;28;20029;-71
2023/04/18 08:12:59;;;;;;;3.05;1.98;;;13.10;61.30;;;;;;4979767;28;20476;-68
2023/04/18 08:15:31;;;;;;;3.05;1.73;;;13.10;61.20;;;;;;5000562;28;20108;-69
2023/04/18 08:17:57;;;;;;;2.17;1.52;;;13.00;61.50;;;;;;4997765;28;20041;-69
2023/04/18 08:20:22;;;;;;;2.25;1.50;;;13.10;61.60;;;;;;4977624;28;20387;-69
2023/04/18 08:22:49;;;;;;;1.70;1.10;;;13.20;61.50;;;;;;5005550;28;20092;-69
2023/04/18 08:25:16;;;;;;;1.55;1.00;;;13.40;61.20;;;;;;5006446;28;20049;-69
2023/04/18 08:27:42;;;;;;;1.75;1.38;;;13.40;60.90;;;;;;4993271;28;20145;-69
2023/04/18 08:30:08;;;;;;;2.88;1.35;;;13.50;60.90;;;;;;5004031;28;20400;-69
2023/04/18 08:32:37;;;;;;;1.95;1.27;;;13.60;60.80;;;;;;5004131;28;20030;-69
2023/04/18 08:35:04;;;;;;;1.92;1.40;;;13.50;60.70;;;;;;5009323;28;20378;-69
2023/04/18 08:37:31;;;;;;;3.40;1.50;;;13.50;60.90;;;;;;4992799;28;20034;-69
2023/04/18 08:39:57;;;;;;;2.22;1.45;;;13.50;60.90;;;;;;5009762;28;20180;-69
2023/04/18 08:42:23;;;;;;;1.73;1.42;;;13.60;61.00;;;;;;5003732;28;20120;-67
2023/04/18 08:44:49;;;;;;;1.55;1.20;;;13.60;60.80;;;;;;5002245;28;20137;-68
2023/04/18 08:47:15;;;;;;;1.02;0.68;;;13.60;60.80;;;;;;5006572;28;20034;-71
2023/04/18 08:49:42;;;;;;;1.88;1.15;;;13.70;60.80;;;;;;5007556;28;20042;-68
2023/04/18 08:52:18;;;;;;;1.65;1.48;;;13.70;60.80;;;;;;4989751;28;20092;-75
2023/04/18 08:54:45;;;;;;;1.65;1.27;;;13.70;60.70;;;;;;5006132;28;20508;-72
2023/04/18 08:57:15;;;;;;;2.63;1.73;;;13.70;60.70;;;;;;5008269;28;20027;-72
2023/04/18 08:59:44;;;;;;;1.75;1.30;;;13.70;60.80;;;;;;5005564;28;20046;-71
2023/04/18 09:02:11;;;;;;;2.25;1.40;;;13.70;60.80;;;;;;5008680;28;20018;-73
2023/04/18 09:04:38;;;;;;;1.75;0.80;;;13.60;60.80;;;;;;5006398;28;20080;-76
2023/04/18 09:07:07;;;;;;;1.85;1.10;;;13.50;60.90;;;;;;5005004;28;20018;-70
2023/04/18 09:09:53;;;;;;;1.63;1.17;;;13.60;61.20;;;;;;4998536;28;20064;-66
2023/04/18 09:12:25;;;;;;;1.33;0.85;;;13.60;61.00;;;;;;5009226;28;20378;-67
2023/04/18 09:14:56;;;;;;;1.67;1.23;;;13.70;60.90;;;;;;5008582;28;20041;-74
2023/04/18 09:17:36;;;;;;;1.73;1.10;;;13.70;60.70;;;;;;5009520;28;20072;-73
2023/04/18 09:20:04;;;;;;;3.10;1.20;;;13.70;60.50;;;;;;4992525;28;20049;-73
2023/04/18 09:23:03;;;;;;;2.70;1.67;;;13.70;60.60;;;;;;5002282;28;20038;-73
2023/04/18 09:25:36;;;;;;;2.25;1.60;;;13.90;60.60;;;;;;4976559;28;20033;-73
2023/04/18 09:28:04;;;;;;;1.63;0.90;;;13.80;60.40;;;;;;4997588;28;20049;-74
2023/04/18 09:30:39;;;;;;;3.05;0.95;;;13.90;60.60;;;;;;5006567;28;20030;-73
2023/04/18 09:33:09;;;;;;;2.47;1.23;;;14.00;60.40;;;;;;5009088;28;20044;-72
2023/04/18 09:35:38;;;;;;;2.55;1.00;;;14.00;60.30;;;;;;5007086;28;20068;-73
2023/04/18 09:38:06;;;;;;;1.60;1.00;;;14.00;60.30;;;;;;5002819;28;20481;-72
2023/04/18 09:40:32;;;;;;;0.95;0.80;;;14.10;60.30;;;;;;5004576;28;20041;-73
2023/04/18 09:42:58;;;;;;;1.90;1.42;;;14.10;60.30;;;;;;5003440;28;20518;-73
2023/04/18 09:45:24;;;;;;;2.30;1.30;;;14.20;60.00;;;;;;4999204;28;20054;-73
2023/04/18 09:47:51;;;;;;;2.47;1.35;;;14.30;59.90;;;;;;5001725;28;20112;-73
2023/04/18 09:50:19;;;;;;;1.90;0.82;;;14.40;59.60;;;;;;5000408;28;20045;-73
2023/04/18 09:52:46;;;;;;;2.08;0.90;;;14.40;59.40;;;;;;5005865;28;20061;-73
2023/04/18 09:55:18;;;;;;;1.20;0.95;;;14.50;59.60;;;;;;5006970;28;20030;-68
2023/04/18 09:57:47;;;;;;;;;;;14.60;59.60;;;;;;5007071;28;20044;-73
2023/04/18 10:00:25;;;;;;;2.15;1.13;;;14.60;59.40;;;;;;4971296;28;19921;-67
2023/04/18 10:02:58;;;;;;;1.45;1.00;;;14.70;59.30;;;;;;5004518;28;20124;-68
2023/04/18 10:05:33;;;;;;;1.42;0.95;;;14.70;59.20;;;;;;5004376;28;20125;-68
2023/04/18 10:07:59;;;;;;;1.05;0.95;;;14.80;59.20;;;;;;5002869;28;20030;-73
2023/04/18 10:10:28;;;;;;;1.05;0.95;;;14.90;58.90;;;;;;4992057;28;20064;-73
2023/04/18 10:12:56;;;;;;;2.25;1.33;;;15.00;58.60;;;;;;4992145;28;20069;-73
2023/04/18 10:15:25;;;;;;;2.45;1.25;;;15.20;58.40;;;;;;5010318;28;20033;-73
2023/04/18 10:17:53;;;;;;;3.60;1.73;;;15.30;58.30;;;;;;5010616;28;20521;-73
2023/04/18 10:20:21;;;;;;;1.95;1.30;;;15.50;57.90;;;;;;4990391;28;20041;-75
2023/04/18 10:22:48;;;;;;;3.25;1.30;;;15.50;57.60;;;;;;4995124;28;20033;-72
2023/04/18 10:25:34;;;;;;;1.88;1.13;;;15.60;57.60;;;;;;4992884;28;20046;-73
2023/04/18 10:28:07;;;;;;;2.13;1.30;;;15.70;57.30;;;;;;4994910;28;20025;-71
2023/04/18 10:30:39;;;;;;;1.40;1.08;;;15.80;57.10;;;;;;5009682;28;20050;-69
2023/04/18 10:33:31;;;;;;;1.30;0.98;;;15.90;57.00;;;;;;5010026;28;20038;-69
2023/04/18 10:36:05;;;;;;;2.22;1.10;;;16.10;56.50;;;;;;5003653;28;20034;-68
2023/04/18 10:38:43;;;;;;;1.88;1.17;;;16.20;56.30;;;;;;5008751;28;20034;-68
2023/04/18 10:41:15;;;;;;;1.35;1.20;;;16.10;56.10;;;;;;5007786;28;20038;-68
2023/04/18 10:44:06;;;;;;;1.35;1.20;;;16.00;56.40;;;;;;5003406;28;20441;-68
2023/04/18 10:46:32;;;;;;;1.52;1.20;;;15.80;56.80;;;;;;5006919;28;20034;-68
2023/04/18 10:49:13;;;;;;;1.23;1.02;;;15.70;57.30;;;;;;4984504;28;20026;-68
2023/04/18 10:51:39;;;;;;;1.40;1.02;;;15.70;57.50;;;;;;5000985;28;20034;-66
2023/04/18 10:54:09;;;;;;;1.20;0.90;;;15.70;57.40;;;;;;5004281;28;20041;-68
2023/04/18 10:56:34;;;;;;;2.00;1.75;;;15.70;57.40;;;;;;4983929;28;20029;-68
2023/04/18 10:59:02;;;;;;;2.08;1.42;;;15.60;57.30;;;;;;5001125;28;20401;-69
2023/04/18 11:01:35;;;;;;;1.45;1.13;;;15.60;57.30;;;;;;4980368;28;20430;-69
2023/04/18 11:04:09;;;;;;;2.08;1.38;;;15.60;57.30;;;;;;5004690;28;20054;-68
2023/04/18 11:06:46;;;;;;;2.50;1.42;;;15.60;57.20;;;;;;5006230;28;20072;-69
2023/04/18 11:09:13;;;;;;;2.08;1.23;;;15.80;57.30;;;;;;4984785;28;20099;-69
2023/04/18 11:11:40;;;;;;;1.38;1.02;;;15.90;57.00;;;;;;4990533;28;20053;-68
2023/04/18 11:14:06;;;;;;;1.45;1.33;;;16.30;56.80;;;;;;5004438;28;20026;-67
2023/04/18 11:16:32;;;;;;;3.90;1.67;;;16.70;56.20;;;;;;4987811;28;20075;-67
2023/04/18 11:18:59;;;;;;;2.33;1.20;;;17.00;55.30;;;;;;5005965;28;20045;-68
2023/04/18 11:21:28;;;;;;;2.42;1.88;;;17.30;55.00;;;;;;5005296;28;20029;-68
2023/04/18 11:23:57;;;;;;;2.17;1.55;;;17.60;54.50;;;;;;4984410;28;20041;-68
2023/04/18 11:26:27;;;;;;;2.30;1.52;;;17.60;53.90;;;;;;5004677;28;20463;-68
2023/04/18 11:28:56;;;;;;;2.67;1.30;;;17.40;53.90;;;;;;5001200;28;20124;-68
2023/04/18 11:31:23;;;;;;;2.70;1.42;;;17.10;54.50;;;;;;5003185;28;20041;-68
2023/04/18 11:33:50;;;;;;;1.60;1.48;;;16.80;54.90;;;;;;5002530;28;20026;-68
2023/04/18 11:36:16;;;;;;;2.38;1.70;;;16.60;55.50;;;;;;4987540;28;20030;-68
2023/04/18 11:38:42;;;;;;;2.72;1.63;;;16.50;55.90;;;;;;4987501;28;20033;-68
2023/04/18 11:41:13;;;;;;;2.63;1.40;;;16.40;56.10;;;;;;4988486;28;20111;-68
2023/04/18 11:43:43;;;;;;;2.05;1.23;;;16.30;56.30;;;;;;4999084;28;20490;-68
2023/04/18 11:46:10;;;;;;;2.58;1.23;;;16.30;56.40;;;;;;5002455;28;20042;-68
2023/04/18 11:48:44;;;;;;;2.33;1.30;;;16.20;56.50;;;;;;5005642;28;20469;-68
2023/04/18 11:51:37;;;;;;;2.88;1.50;;;16.00;56.60;;;;;;5005115;28;20061;-68
2023/04/18 11:54:03;;;;;;;2.25;1.40;;;15.90;57.00;;;;;;5003673;28;20109;-68
2023/04/18 11:56:30;;;;;;;2.75;1.52;;;15.80;57.20;;;;;;5003055;28;20040;-68
2023/04/18 11:58:56;;;;;;;2.58;1.40;;;15.80;57.30;;;;;;4969334;28;20051;-68
2023/04/18 12:01:24;;;;;;;3.65;1.48;;;15.80;57.50;;;;;;4958443;28;20038;-68
2023/04/18 12:04:07;;;;;;;3.70;1.88;;;15.80;57.60;;;;;;4964277;28;20058;-68
2023/04/18 12:06:49;;;;;;;5.93;2.75;;;15.90;57.50;;;;;;4968548;28;20026;-68
2023/04/18 12:09:16;;;;;;;4.00;2.10;;;15.90;57.50;;;;;;4969952;28;20054;-68
2023/04/18 12:11:42;;;;;;;2.58;1.55;;;16.00;57.60;;;;;;4967768;28;20023;-69
2023/04/18 12:14:21;;;;;;;2.25;1.42;;;16.10;57.50;;;;;;4970161;28;20035;-69
2023/04/18 12:16:50;;;;;;;3.22;2.10;;;16.20;57.30;;;;;;4968792;28;20082;-68
2023/04/18 12:19:16;;;;;;;3.00;1.25;;;16.20;57.10;;;;;;4964764;28;20074;-69
2023/04/18 12:21:55;;;;;;;3.15;2.10;;;16.20;57.20;;;;;;4964650;28;20056;-69
2023/04/18 12:24:23;;;;;;;2.13;1.27;;;16.30;57.10;;;;;;4957212;28;20050;-68
2023/04/18 12:26:49;;;;;;;2.72;1.80;;;16.40;57.20;;;;;;4970168;28;20023;-68
2023/04/18 12:29:16;;;;;;;3.38;1.88;;;16.60;57.10;;;;;;4968336;28;20081;-68
2023/04/18 12:31:41;;;;;;;2.90;1.88;;;16.70;56.90;;;;;;4970026;28;20410;-68
2023/04/18 12:34:07;;;;;;;2.35;1.50;;;16.80;56.60;;;;;;4971554;28;20042;-68
2023/04/18 12:36:33;;;;;;;2.78;1.70;;;17.00;56.50;;;;;;4967946;28;20324;-68
2023/04/18 12:39:01;;;;;;;4.72;2.25;;;16.90;56.30;;;;;;4966596;28;20460;-68
2023/04/18 12:41:27;;;;;;;2.20;1.50;;;16.80;56.30;;;;;;4969037;28;20069;-68
2023/04/18 12:43:53;;;;;;;2.47;1.88;;;16.80;56.50;;;;;;4967640;28;20062;-68
2023/04/18 12:46:42;;;;;;;3.20;1.83;;;16.70;56.60;;;;;;4962421;28;20043;-69
2023/04/18 12:49:11;;;;;;;4.38;2.35;;;16.70;56.80;;;;;;4947681;28;20043;-69
2023/04/18 12:51:37;;;;;;;4.90;2.85;;;16.50;56.90;;;;;;4965290;28;20026;-68